createdAt,value
2024-02-17T00:01:22.811Z,4.10
2024-02-17T00:03:31.696Z,4.20
2024-02-17T00:05:43.761Z,3.60
2024-02-17T00:07:54.520Z,3.70
2024-02-17T00:10:04.829Z,3.47
2024-02-17T00:12:13.825Z,3.20
2024-02-17T00:14:22.604Z,3.40
2024-02-17T00:16:31.117Z,3.07
2024-02-17T00:18:40.061Z,1.50
2024-02-17T00:20:50.253Z,0.83
2024-02-17T00:22:59.014Z,0.87
2024-02-17T00:25:07.971Z,0.40
2024-02-17T00:27:16.701Z,0.30
2024-02-17T00:29:24.482Z,0.33
2024-02-17T00:31:33.071Z,0.40
2024-02-17T00:33:41.680Z,0.40
2024-02-17T00:35:53.282Z,0.30
2024-02-17T00:38:01.824Z,0.30
2024-02-17T00:40:09.928Z,0.23
2024-02-17T00:42:18.667Z,0.30
2024-02-17T00:44:26.258Z,0.20
2024-02-17T00:46:34.959Z,0.20
2024-02-17T00:48:42.545Z,0.30
2024-02-17T00:50:57.945Z,0.30
2024-02-17T00:53:10.693Z,0.27
2024-02-17T00:55:19.261Z,0.40
2024-02-17T00:57:28.045Z,0.30
2024-02-17T00:59:37.041Z,0.50
2024-02-17T01:01:46.734Z,0.40
2024-02-17T01:03:57.245Z,0.50
2024-02-17T01:06:08.725Z,0.40
2024-02-17T01:08:17.354Z,0.40
2024-02-17T01:10:26.177Z,0.30
2024-02-17T01:12:34.837Z,0.30
2024-02-17T01:14:43.635Z,0.20
2024-02-17T01:16:52.318Z,0.30
2024-02-17T01:19:01.174Z,0.30
2024-02-17T01:21:11.291Z,0.30
2024-02-17T01:23:19.958Z,0.30
2024-02-17T01:25:28.585Z,0.20
2024-02-17T01:27:37.246Z,0.20
2024-02-17T01:29:45.934Z,0.20
2024-02-17T01:31:55.690Z,0.20
2024-02-17T01:34:04.292Z,0.20
2024-02-17T01:36:18.432Z,0.30
2024-02-17T01:38:27.032Z,0.30
2024-02-17T01:40:35.671Z,0.23
2024-02-17T01:42:44.253Z,0.17
2024-02-17T01:44:53.251Z,0.20
2024-02-17T01:47:02.145Z,0.20
2024-02-17T01:49:11.393Z,0.30
2024-02-17T01:51:21.538Z,0.30
2024-02-17T01:53:30.582Z,0.40
2024-02-17T01:55:39.604Z,0.30
2024-02-17T01:57:49.284Z,0.30
2024-02-17T01:59:58.616Z,0.30
2024-02-17T02:02:07.402Z,0.40
2024-02-17T02:04:16.200Z,0.30
2024-02-17T02:06:26.222Z,0.30
2024-02-17T02:08:34.830Z,0.30
2024-02-17T02:10:42.466Z,0.40
2024-02-17T02:12:51.275Z,0.20
2024-02-17T02:15:12.076Z,0.30
2024-02-17T02:17:21.129Z,0.20
2024-02-17T02:19:29.785Z,0.30
2024-02-17T02:21:40.289Z,0.30
2024-02-17T02:23:49.714Z,0.30
2024-02-17T02:25:58.736Z,0.30
2024-02-17T02:28:07.679Z,0.30
2024-02-17T02:30:15.439Z,0.27
2024-02-17T02:32:26.990Z,0.40
2024-02-17T02:34:35.613Z,0.40
2024-02-17T02:36:44.337Z,0.40
2024-02-17T02:38:53.788Z,0.30
2024-02-17T02:41:03.918Z,0.30
2024-02-17T02:43:12.448Z,0.47
2024-02-17T02:45:22.268Z,0.50
2024-02-17T02:47:30.905Z,0.50
2024-02-17T02:49:39.830Z,0.30
2024-02-17T02:51:49.588Z,0.27
2024-02-17T02:53:58.184Z,0.30
2024-02-17T02:56:09.173Z,0.30
2024-02-17T02:58:17.785Z,0.23
2024-02-17T03:00:26.488Z,0.30
2024-02-17T03:02:35.217Z,0.30
2024-02-17T03:04:43.917Z,0.30
2024-02-17T03:06:52.673Z,0.30
2024-02-17T03:09:01.291Z,0.33
2024-02-17T03:11:12.556Z,0.30
2024-02-17T03:13:21.270Z,0.47
2024-02-17T03:15:30.464Z,0.57
2024-02-17T03:17:38.164Z,0.43
2024-02-17T03:19:48.005Z,0.40
2024-02-17T03:21:56.685Z,0.43
2024-02-17T03:24:05.518Z,0.50
2024-02-17T03:26:15.590Z,0.50
2024-02-17T03:28:24.151Z,0.40
2024-02-17T03:30:54.535Z,0.60
2024-02-17T03:33:03.192Z,0.40
2024-02-17T03:35:12.173Z,0.30
2024-02-17T03:37:20.586Z,0.53
2024-02-17T03:39:29.232Z,0.50
2024-02-17T03:41:39.524Z,0.60
2024-02-17T03:43:48.132Z,0.37
2024-02-17T03:45:56.772Z,0.47
2024-02-17T03:48:05.664Z,0.60
2024-02-17T03:50:14.504Z,0.63
2024-02-17T03:52:23.225Z,0.30
2024-02-17T03:54:31.872Z,0.40
2024-02-17T03:56:41.889Z,0.67
2024-02-17T03:58:50.450Z,0.40
2024-02-17T04:00:59.379Z,0.37
2024-02-17T04:03:09.463Z,0.40
2024-02-17T04:05:19.491Z,0.33
2024-02-17T04:07:28.260Z,0.43
2024-02-17T04:09:37.117Z,0.40
2024-02-17T04:11:47.260Z,0.50
2024-02-17T04:13:57.201Z,0.40
2024-02-17T04:16:10.468Z,0.40
2024-02-17T04:18:19.557Z,0.30
2024-02-17T04:20:28.991Z,0.53
2024-02-17T04:22:36.826Z,0.40
2024-02-17T04:24:46.631Z,0.50
2024-02-17T04:26:57.418Z,0.57
2024-02-17T04:29:06.164Z,0.50
2024-02-17T04:31:14.898Z,0.37
2024-02-17T04:33:23.663Z,0.40
2024-02-17T04:35:32.300Z,0.50
2024-02-17T04:37:41.314Z,0.50
2024-02-17T04:39:50.118Z,0.37
2024-02-17T04:42:00.193Z,0.53
2024-02-17T04:44:08.922Z,0.60
2024-02-17T04:46:16.761Z,0.63
2024-02-17T04:48:25.528Z,0.50
2024-02-17T04:50:34.437Z,0.50
2024-02-17T04:52:43.538Z,0.50
2024-02-17T04:54:52.203Z,0.50
2024-02-17T04:57:02.102Z,0.60
2024-02-17T04:59:10.684Z,0.50
2024-02-17T05:01:20.799Z,0.30
2024-02-17T05:03:29.575Z,0.57
2024-02-17T05:05:40.535Z,0.57
2024-02-17T05:07:49.662Z,0.50
2024-02-17T05:09:58.276Z,0.50
2024-02-17T05:12:08.334Z,0.20
2024-02-17T05:14:17.218Z,0.57
2024-02-17T05:16:27.353Z,0.50
2024-02-17T05:18:36.267Z,0.33
2024-02-17T05:20:44.904Z,0.60
2024-02-17T05:22:53.503Z,0.40
2024-02-17T05:25:02.045Z,0.40
2024-02-17T05:27:12.238Z,0.40
2024-02-17T05:29:21.148Z,0.30
2024-02-17T05:31:30.019Z,0.40
2024-02-17T05:33:39.508Z,0.50
2024-02-17T05:35:48.117Z,0.40
2024-02-17T05:37:56.605Z,0.60
2024-02-17T05:40:07.192Z,0.40
2024-02-17T05:42:17.289Z,0.33
2024-02-17T05:44:25.956Z,0.50
2024-02-17T05:46:34.798Z,0.60
2024-02-17T05:48:46.645Z,0.30
2024-02-17T05:50:56.038Z,0.30
2024-02-17T05:53:04.730Z,0.40
2024-02-17T05:55:13.403Z,0.40
2024-02-17T05:57:24.271Z,0.57
2024-02-17T05:59:33.103Z,0.40
2024-02-17T06:01:40.661Z,0.40
2024-02-17T06:03:49.393Z,0.60
2024-02-17T06:05:58.076Z,0.80
2024-02-17T06:08:06.960Z,0.50
2024-02-17T06:10:18.425Z,0.40
2024-02-17T06:12:28.380Z,0.30
2024-02-17T06:14:36.950Z,0.40
2024-02-17T06:16:46.244Z,0.47
2024-02-17T06:19:12.654Z,0.50
2024-02-17T06:21:23.247Z,0.40
2024-02-17T06:23:32.225Z,0.43
2024-02-17T06:25:40.846Z,0.43
2024-02-17T06:27:50.964Z,0.53
2024-02-17T06:29:59.613Z,0.40
2024-02-17T06:32:08.398Z,0.43
2024-02-17T06:34:17.003Z,0.30
2024-02-17T06:36:24.750Z,0.40
2024-02-17T06:38:33.368Z,0.40
2024-02-17T06:40:41.854Z,0.53
2024-02-17T06:42:51.880Z,0.50
2024-02-17T06:45:00.772Z,0.40
2024-02-17T06:47:09.413Z,0.17
2024-02-17T06:49:17.966Z,0.30
2024-02-17T06:51:27.723Z,0.23
2024-02-17T06:53:36.270Z,0.30
2024-02-17T06:55:44.903Z,0.40
2024-02-17T06:57:55.262Z,0.40
2024-02-17T07:00:04.398Z,0.40
2024-02-17T07:02:12.899Z,0.30
2024-02-17T07:04:21.458Z,0.40
2024-02-17T07:06:29.914Z,0.40
2024-02-17T07:08:38.489Z,0.40
2024-02-17T07:10:46.106Z,0.30
2024-02-17T07:12:56.129Z,0.30
2024-02-17T07:15:04.811Z,0.40
2024-02-17T07:17:13.290Z,0.20
2024-02-17T07:19:21.919Z,0.30
2024-02-17T07:21:30.547Z,0.33
2024-02-17T07:23:39.034Z,0.27
2024-02-17T07:25:48.962Z,0.40
2024-02-17T07:28:09.697Z,0.30
2024-02-17T07:30:18.474Z,0.30
2024-02-17T07:32:27.949Z,0.40
2024-02-17T07:34:37.577Z,0.40
2024-02-17T07:36:48.112Z,0.40
2024-02-17T07:38:56.716Z,0.60
2024-02-17T07:41:05.238Z,0.43
2024-02-17T07:43:14.169Z,0.60
2024-02-17T07:45:22.782Z,0.23
2024-02-17T07:47:43.507Z,0.40
2024-02-17T07:49:52.141Z,0.40
2024-02-17T07:52:00.840Z,0.37
2024-02-17T07:54:09.390Z,0.20
2024-02-17T07:56:17.962Z,0.57
2024-02-17T07:58:27.825Z,0.33
2024-02-17T08:00:36.407Z,0.30
2024-02-17T08:02:47.151Z,0.50
2024-02-17T08:04:58.049Z,0.40
2024-02-17T08:07:07.224Z,0.30
2024-02-17T08:09:16.955Z,0.30
2024-02-17T08:11:25.683Z,0.50
2024-02-17T08:13:35.654Z,0.20
2024-02-17T08:15:44.647Z,0.40
2024-02-17T08:17:53.257Z,0.50
2024-02-17T08:20:04.776Z,0.20
2024-02-17T08:22:16.443Z,0.40
2024-02-17T08:24:25.097Z,0.40
2024-02-17T08:26:34.728Z,0.33
2024-02-17T08:28:44.970Z,0.33
2024-02-17T08:30:53.602Z,0.40
2024-02-17T08:33:02.347Z,0.33
2024-02-17T08:35:12.061Z,0.40
2024-02-17T08:37:20.633Z,0.30
2024-02-17T08:39:29.132Z,0.50
2024-02-17T08:41:41.000Z,0.37
2024-02-17T08:43:50.930Z,1.10
2024-02-17T08:46:00.073Z,0.50
2024-02-17T08:48:09.244Z,0.50
2024-02-17T08:50:21.729Z,0.40
2024-02-17T08:52:30.412Z,0.60
2024-02-17T08:54:37.947Z,0.40
2024-02-17T08:56:46.875Z,0.40
2024-02-17T08:58:56.850Z,0.50
2024-02-17T09:01:06.392Z,0.60
2024-02-17T09:03:15.095Z,0.40
2024-02-17T09:05:24.030Z,0.37
2024-02-17T09:07:32.981Z,0.40
2024-02-17T09:09:41.814Z,0.43
2024-02-17T09:11:50.972Z,0.50
2024-02-17T09:14:01.237Z,0.40
2024-02-17T09:16:09.927Z,0.50
2024-02-17T09:18:18.700Z,0.30
2024-02-17T09:20:27.378Z,0.40
2024-02-17T09:22:36.390Z,0.43
2024-02-17T09:24:44.872Z,0.60
2024-02-17T09:26:56.056Z,0.50
2024-02-17T09:29:06.005Z,0.40
2024-02-17T09:31:14.505Z,0.43
2024-02-17T09:33:28.683Z,0.33
2024-02-17T09:35:37.309Z,0.43
2024-02-17T09:37:46.094Z,0.50
2024-02-17T09:39:54.718Z,0.40
2024-02-17T09:42:03.413Z,0.40
2024-02-17T09:44:13.596Z,0.50
2024-02-17T09:46:22.308Z,0.50
2024-02-17T09:48:31.498Z,0.50
2024-02-17T09:50:40.498Z,0.60
2024-02-17T09:52:50.040Z,0.40
2024-02-17T09:54:58.977Z,0.43
2024-02-17T09:57:08.552Z,0.27
2024-02-17T09:59:18.581Z,0.40
2024-02-17T10:01:28.591Z,0.37
2024-02-17T10:03:41.208Z,0.40
2024-02-17T10:05:49.870Z,0.60
2024-02-17T10:07:58.380Z,0.30
2024-02-17T10:10:07.178Z,0.40
2024-02-17T10:12:16.017Z,0.40
2024-02-17T10:14:28.201Z,0.40
2024-02-17T10:16:36.715Z,0.30
2024-02-17T10:18:45.896Z,0.40
2024-02-17T10:20:55.636Z,0.40
2024-02-17T10:23:04.399Z,0.27
2024-02-17T10:25:13.791Z,0.33
2024-02-17T10:27:22.425Z,0.43
2024-02-17T10:29:32.489Z,0.50
2024-02-17T10:31:41.115Z,0.20
2024-02-17T10:33:51.053Z,0.27
2024-02-17T10:36:00.940Z,0.40
2024-02-17T10:38:10.896Z,0.33
2024-02-17T10:40:19.861Z,0.20
2024-02-17T10:42:27.697Z,0.40
2024-02-17T10:44:38.348Z,0.30
2024-02-17T10:46:48.964Z,0.30
2024-02-17T10:49:05.635Z,0.30
2024-02-17T10:51:14.514Z,0.30
2024-02-17T10:53:30.052Z,0.23
2024-02-17T10:55:39.546Z,0.30
2024-02-17T10:58:06.149Z,0.40
2024-02-17T11:00:16.966Z,0.40
2024-02-17T11:02:28.192Z,0.40
2024-02-17T11:04:37.453Z,0.30
2024-02-17T11:06:46.289Z,0.33
2024-02-17T11:08:54.973Z,0.30
2024-02-17T11:11:23.783Z,0.30
2024-02-17T11:13:32.404Z,0.37
2024-02-17T11:16:01.338Z,0.30
2024-02-17T11:18:10.786Z,0.20
2024-02-17T11:20:20.187Z,0.30
2024-02-17T11:22:30.010Z,0.30
2024-02-17T11:24:38.898Z,0.20
2024-02-17T11:26:47.930Z,0.27
2024-02-17T11:28:57.468Z,0.23
2024-02-17T11:31:09.164Z,0.30
2024-02-17T11:33:18.472Z,0.40
2024-02-17T11:35:29.467Z,0.37
2024-02-17T11:37:38.885Z,0.20
2024-02-17T11:39:49.036Z,0.23
2024-02-17T11:41:57.981Z,0.20
2024-02-17T11:44:07.041Z,0.20
2024-02-17T11:46:20.572Z,0.30
2024-02-17T11:48:28.797Z,0.20
2024-02-17T11:50:40.831Z,0.23
2024-02-17T11:52:50.340Z,0.30
2024-02-17T11:54:58.955Z,0.20
2024-02-17T11:57:09.097Z,0.20
2024-02-17T11:59:17.907Z,0.20
2024-02-17T12:01:30.469Z,0.30
2024-02-17T12:03:38.138Z,0.30
2024-02-17T12:05:47.174Z,0.40
2024-02-17T12:07:55.800Z,0.27
2024-02-17T12:10:04.425Z,0.30
2024-02-17T12:12:13.118Z,0.30
2024-02-17T12:14:24.773Z,0.30
2024-02-17T12:16:35.192Z,0.43
2024-02-17T12:18:43.379Z,0.30
2024-02-17T12:20:52.348Z,0.30
2024-02-17T12:23:01.217Z,0.40
2024-02-17T12:25:10.548Z,0.33
2024-02-17T12:27:20.112Z,0.30
2024-02-17T12:29:30.221Z,0.40
2024-02-17T12:31:40.321Z,0.40
2024-02-17T12:33:50.423Z,0.37
2024-02-17T12:36:00.843Z,0.40
2024-02-17T12:38:12.319Z,0.23
2024-02-17T12:40:21.980Z,0.30
2024-02-17T12:42:30.762Z,0.10
2024-02-17T12:44:39.400Z,0.30
2024-02-17T12:46:49.432Z,0.30
2024-02-17T12:48:59.206Z,0.30
2024-02-17T12:51:08.571Z,0.40
2024-02-17T12:53:17.995Z,0.30
2024-02-17T12:55:26.609Z,0.30
2024-02-17T12:57:35.460Z,0.30
2024-02-17T12:59:44.070Z,0.40
2024-02-17T13:01:54.123Z,0.20
2024-02-17T13:04:02.743Z,0.30
2024-02-17T13:06:11.490Z,0.70
2024-02-17T13:08:19.244Z,0.30
2024-02-17T13:10:28.010Z,0.30
2024-02-17T13:12:36.710Z,0.40
2024-02-17T13:14:47.519Z,0.20
2024-02-17T13:16:58.828Z,0.20
2024-02-17T13:19:07.712Z,0.40
2024-02-17T13:21:16.698Z,0.30
2024-02-17T13:23:25.355Z,0.30
2024-02-17T13:25:34.044Z,0.30
2024-02-17T13:27:41.908Z,0.30
2024-02-17T13:29:50.609Z,0.30
2024-02-17T13:32:00.601Z,0.20
2024-02-17T13:34:09.342Z,0.17
2024-02-17T13:36:18.004Z,0.30
2024-02-17T13:38:30.603Z,0.33
2024-02-17T13:40:39.903Z,0.30
2024-02-17T13:42:48.769Z,0.20
2024-02-17T13:44:57.356Z,0.30
2024-02-17T13:47:07.648Z,0.30
2024-02-17T13:49:16.374Z,0.40
2024-02-17T13:51:25.950Z,0.27
2024-02-17T13:53:35.672Z,0.47
2024-02-17T13:55:44.871Z,0.70
2024-02-17T13:57:53.671Z,0.73
2024-02-17T14:00:02.997Z,0.80
2024-02-17T14:02:13.601Z,0.70
2024-02-17T14:04:22.218Z,0.87
2024-02-17T14:06:30.944Z,1.00
2024-02-17T14:08:39.604Z,1.00
2024-02-17T14:10:48.396Z,0.80
2024-02-17T14:12:57.403Z,0.80
2024-02-17T14:15:06.684Z,0.47
2024-02-17T14:17:17.936Z,0.40
2024-02-17T14:19:26.696Z,0.30
2024-02-17T14:21:36.804Z,0.30
2024-02-17T14:23:50.360Z,0.50
2024-02-17T14:25:59.102Z,0.50
2024-02-17T14:28:08.210Z,0.50
2024-02-17T14:30:18.964Z,0.40
2024-02-17T14:32:28.205Z,0.30
2024-02-17T14:34:37.252Z,0.40
2024-02-17T14:36:45.879Z,0.70
2024-02-17T14:38:54.647Z,0.87
2024-02-17T14:41:03.382Z,1.07
2024-02-17T14:43:11.986Z,1.00
2024-02-17T14:45:24.317Z,0.80
2024-02-17T14:47:34.513Z,1.00
2024-02-17T14:49:43.258Z,0.67
2024-02-17T14:51:52.158Z,0.43
2024-02-17T14:54:00.938Z,0.60
2024-02-17T14:56:10.646Z,0.70
2024-02-17T14:58:19.206Z,0.40
2024-02-17T15:00:28.379Z,0.40
2024-02-17T15:02:39.715Z,0.50
2024-02-17T15:04:48.369Z,0.40
2024-02-17T15:06:59.672Z,0.23
2024-02-17T15:09:09.877Z,0.37
2024-02-17T15:11:18.569Z,0.47
2024-02-17T15:13:27.852Z,0.30
2024-02-17T15:15:37.795Z,0.30
2024-02-17T15:17:48.219Z,0.50
2024-02-17T15:19:57.017Z,0.30
2024-02-17T15:22:05.838Z,0.50
2024-02-17T15:24:17.407Z,0.50
2024-02-17T15:26:26.440Z,0.97
2024-02-17T15:28:35.174Z,0.50
2024-02-17T15:30:46.143Z,0.50
2024-02-17T15:33:31.341Z,0.40
2024-02-17T15:35:43.266Z,0.50
2024-02-17T15:37:52.110Z,0.27
2024-02-17T15:40:01.897Z,0.40
2024-02-17T15:42:10.553Z,0.30
2024-02-17T15:44:19.203Z,0.20
2024-02-17T15:46:28.084Z,0.30
2024-02-17T15:48:38.168Z,0.20
2024-02-17T15:55:59.391Z,0.30
2024-02-17T15:58:08.049Z,0.30
2024-02-17T16:00:20.258Z,0.20
2024-02-17T16:02:29.314Z,0.50
2024-02-17T16:04:38.246Z,0.50
2024-02-17T16:06:48.345Z,0.40
2024-02-17T16:08:57.061Z,0.60
2024-02-17T16:11:06.163Z,0.40
2024-02-17T16:13:14.875Z,0.30
2024-02-17T16:15:23.496Z,0.40
2024-02-17T16:17:32.128Z,0.30
2024-02-17T16:19:41.820Z,0.30
2024-02-17T16:21:52.968Z,0.30
2024-02-17T16:24:01.677Z,0.23
2024-02-17T16:26:11.855Z,0.40
2024-02-17T16:28:21.176Z,0.33
2024-02-17T16:30:29.942Z,0.30
2024-02-17T16:32:38.829Z,0.50
2024-02-17T16:34:49.447Z,0.40
2024-02-17T16:36:59.896Z,0.50
2024-02-17T16:39:12.043Z,0.53
2024-02-17T16:41:20.804Z,0.30
2024-02-17T16:43:30.749Z,0.50
2024-02-17T16:45:40.435Z,0.90
2024-02-17T16:47:51.553Z,0.50
2024-02-17T16:50:00.297Z,0.60
2024-02-17T16:52:10.676Z,0.80
2024-02-17T16:54:18.687Z,0.50
2024-02-17T16:56:27.279Z,0.40
2024-02-17T16:58:35.838Z,0.40
2024-02-17T17:00:44.442Z,0.47
2024-02-17T17:02:53.633Z,0.50
2024-02-17T17:05:02.509Z,0.60
2024-02-17T17:07:12.527Z,0.50
2024-02-17T17:09:21.313Z,0.43
2024-02-17T17:11:32.383Z,0.40
2024-02-17T17:13:41.394Z,0.40
2024-02-17T17:15:50.511Z,0.30
2024-02-17T17:17:59.321Z,0.40
2024-02-17T17:20:08.889Z,0.40
2024-02-17T17:22:30.524Z,0.40
2024-02-17T17:24:47.845Z,0.50
2024-02-17T17:26:56.717Z,0.40
2024-02-17T17:29:05.265Z,0.40
2024-02-17T17:31:13.942Z,0.30
2024-02-17T17:33:22.822Z,0.40
2024-02-17T17:35:31.847Z,0.20
2024-02-17T17:37:41.891Z,0.50
2024-02-17T17:39:50.701Z,0.90
2024-02-17T17:41:58.233Z,1.10
2024-02-17T17:44:07.296Z,1.07
2024-02-17T17:46:16.244Z,2.07
2024-02-17T17:48:24.899Z,1.80
2024-02-17T17:50:33.583Z,1.20
2024-02-17T17:52:43.771Z,1.33
2024-02-17T17:54:52.806Z,1.10
2024-02-17T17:57:01.484Z,0.57
2024-02-17T17:59:13.702Z,1.83
2024-02-17T18:01:24.377Z,2.10
2024-02-17T18:03:33.227Z,1.90
2024-02-17T18:05:42.193Z,3.80
2024-02-17T18:07:55.064Z,2.10
2024-02-17T18:10:04.070Z,0.73
2024-02-17T18:12:12.797Z,0.60
2024-02-17T18:14:21.485Z,0.60
2024-02-17T18:16:30.370Z,0.97
2024-02-17T18:18:39.187Z,1.00
2024-02-17T18:20:47.850Z,0.80
2024-02-17T18:22:57.913Z,0.83
2024-02-17T18:25:07.704Z,1.07
2024-02-17T18:27:15.335Z,1.43
2024-02-17T18:29:23.983Z,1.50
2024-02-17T18:31:32.633Z,0.70
2024-02-17T18:33:44.459Z,1.20
2024-02-17T18:35:53.170Z,0.60
2024-02-17T18:38:03.133Z,0.60
2024-02-17T18:40:14.139Z,0.77
2024-02-17T18:42:22.811Z,0.60
2024-02-17T18:44:32.360Z,0.50
2024-02-17T18:46:40.956Z,0.10
2024-02-17T18:48:52.174Z,0.50
2024-02-17T18:51:00.894Z,0.30
2024-02-17T18:53:13.411Z,0.40
2024-02-17T18:55:22.033Z,0.50
2024-02-17T18:57:30.792Z,0.60
2024-02-17T18:59:40.709Z,0.50
2024-02-17T19:01:49.301Z,0.57
2024-02-17T19:03:57.886Z,0.30
2024-02-17T19:06:06.868Z,0.40
2024-02-17T19:08:16.660Z,0.80
2024-02-17T19:10:25.404Z,1.00
2024-02-17T19:12:33.700Z,0.57
2024-02-17T19:14:48.247Z,0.70
2024-02-17T19:16:56.589Z,0.50
2024-02-17T19:19:05.177Z,0.40
2024-02-17T19:21:14.297Z,0.73
2024-02-17T19:23:23.959Z,0.63
2024-02-17T19:25:32.315Z,1.30
2024-02-17T19:27:40.689Z,1.07
2024-02-17T19:29:49.172Z,1.10
2024-02-17T19:31:57.675Z,0.90
2024-02-17T19:34:05.975Z,1.37
2024-02-17T19:36:15.806Z,0.93
2024-02-17T19:38:31.992Z,1.17
2024-02-17T19:40:40.339Z,1.10
2024-02-17T19:42:49.050Z,0.80
2024-02-17T19:44:57.815Z,1.43
2024-02-17T19:47:06.499Z,1.60
2024-02-17T19:49:16.514Z,1.20
2024-02-17T19:51:24.850Z,1.03
2024-02-17T19:53:35.061Z,0.70
2024-02-17T19:55:43.314Z,1.20
2024-02-17T19:57:53.960Z,0.90
2024-02-17T20:00:03.279Z,1.03
2024-02-17T20:02:11.800Z,1.23
2024-02-17T20:04:20.544Z,0.73
2024-02-17T20:06:28.316Z,0.80
2024-02-17T20:08:39.004Z,0.40
2024-02-17T20:10:48.269Z,0.70
2024-02-17T20:12:57.085Z,0.67
2024-02-17T20:15:08.246Z,0.50
2024-02-17T20:17:16.643Z,0.60
2024-02-17T20:19:25.613Z,0.30
2024-02-17T20:21:38.150Z,0.60
2024-02-17T20:23:48.298Z,0.40
2024-02-17T20:25:56.812Z,0.40
2024-02-17T20:28:05.731Z,0.50
2024-02-17T20:30:14.715Z,0.50
2024-02-17T20:32:23.707Z,0.60
2024-02-17T20:34:32.579Z,0.70
2024-02-17T20:36:41.419Z,0.63
2024-02-17T20:38:52.862Z,5.77
2024-02-17T20:41:01.363Z,1.83
2024-02-17T20:43:09.882Z,2.23
2024-02-17T20:45:20.215Z,2.07
2024-02-17T20:47:29.491Z,1.00
2024-02-17T20:49:38.158Z,2.10
2024-02-17T20:51:46.849Z,1.20
2024-02-17T20:53:56.959Z,1.00
2024-02-17T20:56:09.420Z,3.37
2024-02-17T20:58:17.871Z,2.63
2024-02-17T21:00:26.625Z,7.70
2024-02-17T21:02:38.985Z,5.80
2024-02-17T21:04:47.763Z,6.97
2024-02-17T21:06:56.911Z,4.40
2024-02-17T21:09:08.456Z,5.33
2024-02-17T21:11:17.159Z,7.97
2024-02-17T21:13:25.659Z,2.97
2024-02-17T21:15:34.350Z,3.60
2024-02-17T21:17:45.022Z,4.90
2024-02-17T21:19:53.695Z,3.63
2024-02-17T21:22:02.476Z,3.27
2024-02-17T21:24:12.526Z,1.40
2024-02-17T21:26:21.063Z,2.30
2024-02-17T21:28:30.006Z,2.57
2024-02-17T21:30:38.555Z,1.80
2024-02-17T21:32:48.320Z,2.90
2024-02-17T21:34:57.121Z,2.07
2024-02-17T21:37:05.951Z,2.57
2024-02-17T21:39:16.690Z,2.73
2024-02-17T21:41:25.290Z,0.87
2024-02-17T21:43:35.452Z,0.40
2024-02-17T21:45:44.121Z,0.90
2024-02-17T21:47:51.727Z,1.80
2024-02-17T21:50:00.766Z,2.50
2024-02-17T21:52:09.591Z,1.70
2024-02-17T21:54:19.754Z,1.40
2024-02-17T21:56:28.618Z,2.50
2024-02-17T21:58:37.329Z,1.20
2024-02-17T22:00:46.224Z,1.00
2024-02-17T22:02:54.873Z,1.50
2024-02-17T22:05:02.546Z,3.87
2024-02-17T22:07:11.352Z,2.43
2024-02-17T22:09:20.616Z,0.43
2024-02-17T22:11:29.235Z,0.63
2024-02-17T22:13:37.912Z,0.80
2024-02-17T22:15:46.460Z,2.40
2024-02-17T22:17:55.112Z,1.00
2024-02-17T22:20:05.560Z,0.90
2024-02-17T22:22:14.212Z,1.10
2024-02-17T22:24:24.145Z,1.87
2024-02-17T22:26:32.684Z,1.03
2024-02-17T22:28:41.316Z,0.70
2024-02-17T22:30:49.873Z,1.80
2024-02-17T22:32:59.923Z,1.80
2024-02-17T22:35:09.783Z,0.60
2024-02-17T22:37:18.486Z,0.50
2024-02-17T22:39:28.777Z,0.57
2024-02-17T22:41:38.127Z,0.93
2024-02-17T22:43:46.604Z,0.50
2024-02-17T22:45:56.267Z,0.50
2024-02-17T22:48:05.055Z,0.50
2024-02-17T22:50:14.119Z,0.60
2024-02-17T22:52:23.057Z,0.70
2024-02-17T22:54:35.566Z,0.40
2024-02-17T22:56:44.235Z,0.50
2024-02-17T22:58:53.744Z,0.50
2024-02-17T23:01:02.510Z,0.40
2024-02-17T23:03:11.387Z,0.50
2024-02-17T23:05:21.096Z,0.40
2024-02-17T23:07:29.720Z,0.40
2024-02-17T23:09:39.666Z,0.27
2024-02-17T23:11:48.155Z,0.20
2024-02-17T23:13:56.768Z,0.43
2024-02-17T23:16:04.683Z,0.40
2024-02-17T23:18:13.519Z,0.40
2024-02-17T23:20:22.680Z,0.30
2024-02-17T23:22:31.263Z,0.60
2024-02-17T23:25:15.520Z,0.90
2024-02-17T23:27:25.521Z,0.90
2024-02-17T23:29:34.213Z,0.50
2024-02-17T23:31:45.367Z,0.60
2024-02-17T23:33:53.967Z,0.50
2024-02-17T23:36:02.600Z,0.40
2024-02-17T23:38:14.448Z,0.60
2024-02-17T23:40:24.849Z,0.60
2024-02-17T23:42:35.167Z,0.50
2024-02-17T23:44:43.833Z,0.50
2024-02-17T23:46:52.384Z,0.40
2024-02-17T23:49:01.018Z,0.50
2024-02-17T23:51:09.710Z,0.53
2024-02-17T23:53:18.463Z,0.90
2024-02-17T23:55:27.045Z,0.80
2024-02-17T23:57:37.141Z,0.60
2024-02-17T23:59:46.374Z,0.60
